sensor_id;sensor_type;location;lat;lon;timestamp;P1;durP1;ratioP1;P2;durP2;ratioP2
52494;SDS011;38405;53.212;5.660;2022-07-12T00:00:00;8.32;;;5.50;;
52494;SDS011;38405;53.212;5.660;2022-07-12T00:02:26;7.10;;;5.82;;
52494;SDS011;38405;53.212;5.660;2022-07-12T00:04:52;11.52;;;6.25;;
52494;SDS011;38405;53.212;5.660;2022-07-12T00:07:18;6.78;;;5.47;;
52494;SDS011;38405;53.212;5.660;2022-07-12T00:09:44;6.22;;;5.57;;
52494;SDS011;38405;53.212;5.660;2022-07-12T00:12:10;12.48;;;5.88;;
52494;SDS011;38405;53.212;5.660;2022-07-12T00:14:35;7.68;;;6.07;;
52494;SDS011;38405;53.212;5.660;2022-07-12T00:17:01;10.05;;;6.20;;
52494;SDS011;38405;53.212;5.660;2022-07-12T00:19:29;10.35;;;6.95;;
52494;SDS011;38405;53.212;5.660;2022-07-12T00:21:54;11.32;;;6.10;;
52494;SDS011;38405;53.212;5.660;2022-07-12T00:24:20;9.30;;;6.85;;
52494;SDS011;38405;53.212;5.660;2022-07-12T00:26:45;10.73;;;6.65;;
52494;SDS011;38405;53.212;5.660;2022-07-12T00:29:11;9.18;;;6.22;;
52494;SDS011;38405;53.212;5.660;2022-07-12T00:31:37;7.60;;;6.40;;
52494;SDS011;38405;53.212;5.660;2022-07-12T00:34:02;7.97;;;6.25;;
52494;SDS011;38405;53.212;5.660;2022-07-12T00:36:28;9.30;;;6.15;;
52494;SDS011;38405;53.212;5.660;2022-07-12T00:38:54;9.32;;;6.63;;
52494;SDS011;38405;53.212;5.660;2022-07-12T00:41:21;7.70;;;5.60;;
52494;SDS011;38405;53.212;5.660;2022-07-12T00:43:47;35.50;;;4.85;;
52494;SDS011;38405;53.212;5.660;2022-07-12T00:46:18;41.65;;;4.70;;
52494;SDS011;38405;53.212;5.660;2022-07-12T00:48:47;56.75;;;4.13;;
52494;SDS011;38405;53.212;5.660;2022-07-12T00:51:16;3.92;;;3.33;;
52494;SDS011;38405;53.212;5.660;2022-07-12T00:53:43;9.65;;;4.50;;
52494;SDS011;38405;53.212;5.660;2022-07-12T00:56:09;114.55;;;5.10;;
52494;SDS011;38405;53.212;5.660;2022-07-12T00:58:35;160.25;;;5.90;;
52494;SDS011;38405;53.212;5.660;2022-07-12T01:01:00;167.85;;;5.32;;
52494;SDS011;38405;53.212;5.660;2022-07-12T01:03:26;164.65;;;5.28;;
52494;SDS011;38405;53.212;5.660;2022-07-12T01:05:52;88.20;;;4.00;;
52494;SDS011;38405;53.212;5.660;2022-07-12T01:08:18;94.07;;;5.10;;
52494;SDS011;38405;53.212;5.660;2022-07-12T01:10:45;98.55;;;5.35;;
52494;SDS011;38405;53.212;5.660;2022-07-12T01:13:11;166.20;;;7.72;;
52494;SDS011;38405;53.212;5.660;2022-07-12T01:15:37;247.48;;;10.93;;
52494;SDS011;38405;53.212;5.660;2022-07-12T01:18:03;274.67;;;14.25;;
52494;SDS011;38405;53.212;5.660;2022-07-12T01:20:30;263.52;;;13.02;;
52494;SDS011;38405;53.212;5.660;2022-07-12T01:22:57;264.85;;;13.45;;
52494;SDS011;38405;53.212;5.660;2022-07-12T01:25:23;268.48;;;14.18;;
52494;SDS011;38405;53.212;5.660;2022-07-12T01:27:49;273.88;;;12.98;;
52494;SDS011;38405;53.212;5.660;2022-07-12T01:30:18;268.20;;;12.65;;
52494;SDS011;38405;53.212;5.660;2022-07-12T01:32:44;225.15;;;11.23;;
52494;SDS011;38405;53.212;5.660;2022-07-12T01:35:13;215.57;;;11.13;;
52494;SDS011;38405;53.212;5.660;2022-07-12T01:37:40;196.13;;;11.23;;
52494;SDS011;38405;53.212;5.660;2022-07-12T01:40:10;104.22;;;9.43;;
52494;SDS011;38405;53.212;5.660;2022-07-12T01:42:37;136.15;;;11.80;;
52494;SDS011;38405;53.212;5.660;2022-07-12T01:45:04;77.82;;;9.32;;
52494;SDS011;38405;53.212;5.660;2022-07-12T01:47:31;96.05;;;10.10;;
52494;SDS011;38405;53.212;5.660;2022-07-12T01:49:58;67.88;;;8.93;;
52494;SDS011;38405;53.212;5.660;2022-07-12T01:52:24;77.28;;;9.38;;
52494;SDS011;38405;53.212;5.660;2022-07-12T01:54:50;62.90;;;8.20;;
52494;SDS011;38405;53.212;5.660;2022-07-12T01:57:17;61.25;;;8.40;;
52494;SDS011;38405;53.212;5.660;2022-07-12T01:59:44;83.50;;;8.82;;
52494;SDS011;38405;53.212;5.660;2022-07-12T02:02:10;68.68;;;8.30;;
52494;SDS011;38405;53.212;5.660;2022-07-12T02:04:40;100.57;;;10.00;;
52494;SDS011;38405;53.212;5.660;2022-07-12T02:07:06;100.40;;;9.73;;
52494;SDS011;38405;53.212;5.660;2022-07-12T02:09:31;92.07;;;10.55;;
52494;SDS011;38405;53.212;5.660;2022-07-12T02:11:57;118.13;;;12.77;;
52494;SDS011;38405;53.212;5.660;2022-07-12T02:14:23;128.70;;;11.85;;
52494;SDS011;38405;53.212;5.660;2022-07-12T02:16:49;116.97;;;11.73;;
52494;SDS011;38405;53.212;5.660;2022-07-12T02:19:15;110.80;;;12.10;;
52494;SDS011;38405;53.212;5.660;2022-07-12T02:21:41;115.47;;;10.98;;
52494;SDS011;38405;53.212;5.660;2022-07-12T02:24:07;68.07;;;9.20;;
52494;SDS011;38405;53.212;5.660;2022-07-12T02:26:33;95.20;;;10.02;;
52494;SDS011;38405;53.212;5.660;2022-07-12T02:29:00;82.15;;;8.07;;
52494;SDS011;38405;53.212;5.660;2022-07-12T02:31:27;123.00;;;9.82;;
52494;SDS011;38405;53.212;5.660;2022-07-12T02:33:52;94.35;;;7.75;;
52494;SDS011;38405;53.212;5.660;2022-07-12T02:36:18;69.25;;;7.85;;
52494;SDS011;38405;53.212;5.660;2022-07-12T02:38:44;81.75;;;8.23;;
52494;SDS011;38405;53.212;5.660;2022-07-12T02:41:09;107.53;;;8.85;;
52494;SDS011;38405;53.212;5.660;2022-07-12T02:43:35;60.25;;;7.40;;
52494;SDS011;38405;53.212;5.660;2022-07-12T02:46:04;66.57;;;8.48;;
52494;SDS011;38405;53.212;5.660;2022-07-12T02:48:32;83.10;;;7.60;;
52494;SDS011;38405;53.212;5.660;2022-07-12T02:50:59;95.18;;;9.02;;
52494;SDS011;38405;53.212;5.660;2022-07-12T02:53:26;107.82;;;8.75;;
52494;SDS011;38405;53.212;5.660;2022-07-12T02:55:51;72.53;;;8.07;;
52494;SDS011;38405;53.212;5.660;2022-07-12T02:58:17;96.22;;;8.13;;
52494;SDS011;38405;53.212;5.660;2022-07-12T03:00:43;103.75;;;8.43;;
52494;SDS011;38405;53.212;5.660;2022-07-12T03:03:10;113.65;;;7.72;;
52494;SDS011;38405;53.212;5.660;2022-07-12T03:05:38;95.43;;;7.75;;
52494;SDS011;38405;53.212;5.660;2022-07-12T03:08:03;137.15;;;8.15;;
52494;SDS011;38405;53.212;5.660;2022-07-12T03:10:30;97.28;;;7.20;;
52494;SDS011;38405;53.212;5.660;2022-07-12T03:12:56;119.70;;;7.35;;
52494;SDS011;38405;53.212;5.660;2022-07-12T03:15:21;105.32;;;7.63;;
52494;SDS011;38405;53.212;5.660;2022-07-12T03:17:47;120.70;;;9.50;;
52494;SDS011;38405;53.212;5.660;2022-07-12T03:20:13;50.95;;;6.10;;
52494;SDS011;38405;53.212;5.660;2022-07-12T03:22:42;112.88;;;6.45;;
52494;SDS011;38405;53.212;5.660;2022-07-12T03:25:11;46.20;;;5.30;;
52494;SDS011;38405;53.212;5.660;2022-07-12T03:27:37;64.93;;;5.80;;
52494;SDS011;38405;53.212;5.660;2022-07-12T03:30:03;105.38;;;6.15;;
52494;SDS011;38405;53.212;5.660;2022-07-12T03:32:30;79.25;;;5.15;;
52494;SDS011;38405;53.212;5.660;2022-07-12T03:34:55;59.25;;;5.13;;
52494;SDS011;38405;53.212;5.660;2022-07-12T03:37:21;56.35;;;4.90;;
52494;SDS011;38405;53.212;5.660;2022-07-12T03:39:46;70.00;;;5.20;;
52494;SDS011;38405;53.212;5.660;2022-07-12T03:42:12;80.70;;;4.88;;
52494;SDS011;38405;53.212;5.660;2022-07-12T03:44:38;59.88;;;4.82;;
52494;SDS011;38405;53.212;5.660;2022-07-12T03:47:03;61.00;;;4.60;;
52494;SDS011;38405;53.212;5.660;2022-07-12T03:49:29;66.07;;;4.97;;
52494;SDS011;38405;53.212;5.660;2022-07-12T03:51:55;91.63;;;4.22;;
52494;SDS011;38405;53.212;5.660;2022-07-12T03:54:22;77.85;;;4.85;;
52494;SDS011;38405;53.212;5.660;2022-07-12T03:56:47;55.53;;;4.53;;
52494;SDS011;38405;53.212;5.660;2022-07-12T03:59:31;52.97;;;3.50;;
52494;SDS011;38405;53.212;5.660;2022-07-12T04:01:58;63.67;;;3.78;;
52494;SDS011;38405;53.212;5.660;2022-07-12T04:04:23;33.50;;;3.10;;
52494;SDS011;38405;53.212;5.660;2022-07-12T04:06:49;36.53;;;3.00;;
52494;SDS011;38405;53.212;5.660;2022-07-12T04:09:15;33.08;;;2.95;;
52494;SDS011;38405;53.212;5.660;2022-07-12T04:11:40;40.92;;;3.30;;
52494;SDS011;38405;53.212;5.660;2022-07-12T04:14:06;33.05;;;3.15;;
52494;SDS011;38405;53.212;5.660;2022-07-12T04:16:31;29.33;;;3.30;;
52494;SDS011;38405;53.212;5.660;2022-07-12T04:18:57;17.23;;;3.13;;
52494;SDS011;38405;53.212;5.660;2022-07-12T04:21:23;48.78;;;3.92;;
52494;SDS011;38405;53.212;5.660;2022-07-12T04:23:49;50.15;;;4.60;;
52494;SDS011;38405;53.212;5.660;2022-07-12T04:26:14;53.22;;;4.22;;
52494;SDS011;38405;53.212;5.660;2022-07-12T04:28:40;74.95;;;5.18;;
52494;SDS011;38405;53.212;5.660;2022-07-12T04:31:06;49.03;;;4.18;;
52494;SDS011;38405;53.212;5.660;2022-07-12T04:33:32;52.85;;;4.63;;
52494;SDS011;38405;53.212;5.660;2022-07-12T04:35:58;50.58;;;4.00;;
52494;SDS011;38405;53.212;5.660;2022-07-12T04:38:24;39.72;;;3.72;;
52494;SDS011;38405;53.212;5.660;2022-07-12T04:40:50;37.03;;;3.90;;
52494;SDS011;38405;53.212;5.660;2022-07-12T04:43:15;25.85;;;3.65;;
52494;SDS011;38405;53.212;5.660;2022-07-12T04:45:41;16.27;;;3.25;;
52494;SDS011;38405;53.212;5.660;2022-07-12T04:48:10;27.65;;;3.08;;
52494;SDS011;38405;53.212;5.660;2022-07-12T04:50:36;17.17;;;3.38;;
52494;SDS011;38405;53.212;5.660;2022-07-12T04:53:02;6.93;;;3.38;;
52494;SDS011;38405;53.212;5.660;2022-07-12T04:55:28;15.18;;;3.70;;
52494;SDS011;38405;53.212;5.660;2022-07-12T04:57:54;12.25;;;3.65;;
52494;SDS011;38405;53.212;5.660;2022-07-12T05:00:19;11.27;;;3.08;;
52494;SDS011;38405;53.212;5.660;2022-07-12T05:02:45;15.00;;;3.42;;
52494;SDS011;38405;53.212;5.660;2022-07-12T05:05:11;14.30;;;3.42;;
52494;SDS011;38405;53.212;5.660;2022-07-12T05:07:36;12.30;;;3.72;;
52494;SDS011;38405;53.212;5.660;2022-07-12T05:10:02;15.15;;;3.70;;
52494;SDS011;38405;53.212;5.660;2022-07-12T05:12:28;17.13;;;3.90;;
52494;SDS011;38405;53.212;5.660;2022-07-12T05:14:54;28.45;;;4.00;;
52494;SDS011;38405;53.212;5.660;2022-07-12T05:17:20;37.63;;;4.13;;
52494;SDS011;38405;53.212;5.660;2022-07-12T05:19:45;26.48;;;4.05;;
52494;SDS011;38405;53.212;5.660;2022-07-12T05:22:11;23.63;;;3.97;;
52494;SDS011;38405;53.212;5.660;2022-07-12T05:24:37;27.20;;;4.22;;
52494;SDS011;38405;53.212;5.660;2022-07-12T05:27:02;8.50;;;4.68;;
52494;SDS011;38405;53.212;5.660;2022-07-12T05:29:29;5.20;;;4.50;;
52494;SDS011;38405;53.212;5.660;2022-07-12T05:31:55;5.97;;;4.45;;
52494;SDS011;38405;53.212;5.660;2022-07-12T05:34:21;5.47;;;4.50;;
52494;SDS011;38405;53.212;5.660;2022-07-12T05:36:47;5.22;;;4.25;;
52494;SDS011;38405;53.212;5.660;2022-07-12T05:39:13;5.25;;;4.20;;
52494;SDS011;38405;53.212;5.660;2022-07-12T05:41:38;4.13;;;3.72;;
52494;SDS011;38405;53.212;5.660;2022-07-12T05:44:04;4.95;;;4.20;;
52494;SDS011;38405;53.212;5.660;2022-07-12T05:46:30;7.38;;;4.57;;
52494;SDS011;38405;53.212;5.660;2022-07-12T05:48:56;4.30;;;3.90;;
52494;SDS011;38405;53.212;5.660;2022-07-12T05:51:22;5.10;;;4.00;;
52494;SDS011;38405;53.212;5.660;2022-07-12T05:54:06;5.90;;;4.60;;
52494;SDS011;38405;53.212;5.660;2022-07-12T05:56:32;6.22;;;4.28;;
52494;SDS011;38405;53.212;5.660;2022-07-12T05:58:57;5.20;;;4.20;;
52494;SDS011;38405;53.212;5.660;2022-07-12T06:01:24;6.03;;;4.47;;
52494;SDS011;38405;53.212;5.660;2022-07-12T06:03:49;4.57;;;4.15;;
52494;SDS011;38405;53.212;5.660;2022-07-12T06:06:15;5.00;;;4.50;;
52494;SDS011;38405;53.212;5.660;2022-07-12T06:08:40;4.90;;;4.45;;
52494;SDS011;38405;53.212;5.660;2022-07-12T06:11:06;6.18;;;4.57;;
52494;SDS011;38405;53.212;5.660;2022-07-12T06:13:32;5.05;;;4.07;;
52494;SDS011;38405;53.212;5.660;2022-07-12T06:15:58;4.85;;;4.25;;
52494;SDS011;38405;53.212;5.660;2022-07-12T06:18:24;5.25;;;4.05;;
52494;SDS011;38405;53.212;5.660;2022-07-12T06:20:50;4.18;;;3.88;;
52494;SDS011;38405;53.212;5.660;2022-07-12T06:23:16;5.53;;;4.85;;
52494;SDS011;38405;53.212;5.660;2022-07-12T06:25:43;4.13;;;3.83;;
52494;SDS011;38405;53.212;5.660;2022-07-12T06:28:08;4.30;;;3.88;;
52494;SDS011;38405;53.212;5.660;2022-07-12T06:30:34;6.55;;;4.30;;
52494;SDS011;38405;53.212;5.660;2022-07-12T06:33:00;4.38;;;3.97;;
52494;SDS011;38405;53.212;5.660;2022-07-12T06:35:26;5.30;;;4.10;;
52494;SDS011;38405;53.212;5.660;2022-07-12T06:37:52;4.07;;;3.75;;
52494;SDS011;38405;53.212;5.660;2022-07-12T06:40:18;4.53;;;3.53;;
52494;SDS011;38405;53.212;5.660;2022-07-12T06:42:44;4.78;;;3.50;;
52494;SDS011;38405;53.212;5.660;2022-07-12T06:45:12;3.80;;;3.40;;
52494;SDS011;38405;53.212;5.660;2022-07-12T06:47:38;6.18;;;3.22;;
52494;SDS011;38405;53.212;5.660;2022-07-12T06:50:03;3.42;;;3.13;;
52494;SDS011;38405;53.212;5.660;2022-07-12T06:52:29;3.60;;;3.30;;
52494;SDS011;38405;53.212;5.660;2022-07-12T06:54:56;3.30;;;2.92;;
52494;SDS011;38405;53.212;5.660;2022-07-12T06:57:22;3.42;;;3.13;;
52494;SDS011;38405;53.212;5.660;2022-07-12T06:59:48;3.28;;;3.08;;
52494;SDS011;38405;53.212;5.660;2022-07-12T07:02:13;3.05;;;2.85;;
52494;SDS011;38405;53.212;5.660;2022-07-12T07:04:40;3.38;;;3.10;;
52494;SDS011;38405;53.212;5.660;2022-07-12T07:07:06;3.47;;;3.17;;
52494;SDS011;38405;53.212;5.660;2022-07-12T07:09:32;6.00;;;3.38;;
52494;SDS011;38405;53.212;5.660;2022-07-12T07:11:59;4.05;;;3.08;;
52494;SDS011;38405;53.212;5.660;2022-07-12T07:14:25;3.38;;;3.17;;
52494;SDS011;38405;53.212;5.660;2022-07-12T07:16:52;3.75;;;3.45;;
52494;SDS011;38405;53.212;5.660;2022-07-12T07:19:18;4.00;;;3.13;;
52494;SDS011;38405;53.212;5.660;2022-07-12T07:21:47;3.53;;;3.22;;
52494;SDS011;38405;53.212;5.660;2022-07-12T07:24:13;4.10;;;3.40;;
52494;SDS011;38405;53.212;5.660;2022-07-12T07:26:41;3.40;;;3.10;;
52494;SDS011;38405;53.212;5.660;2022-07-12T07:29:07;4.82;;;3.20;;
52494;SDS011;38405;53.212;5.660;2022-07-12T07:31:51;3.78;;;3.15;;
52494;SDS011;38405;53.212;5.660;2022-07-12T07:34:16;3.70;;;3.40;;
52494;SDS011;38405;53.212;5.660;2022-07-12T07:36:42;4.18;;;3.70;;
52494;SDS011;38405;53.212;5.660;2022-07-12T07:39:07;3.75;;;3.45;;
52494;SDS011;38405;53.212;5.660;2022-07-12T07:41:33;3.85;;;3.40;;
52494;SDS011;38405;53.212;5.660;2022-07-12T07:43:59;3.90;;;3.60;;
52494;SDS011;38405;53.212;5.660;2022-07-12T07:46:24;3.97;;;3.67;;
52494;SDS011;38405;53.212;5.660;2022-07-12T07:48:50;3.83;;;3.45;;
52494;SDS011;38405;53.212;5.660;2022-07-12T07:51:16;3.63;;;3.33;;
52494;SDS011;38405;53.212;5.660;2022-07-12T07:53:42;3.70;;;3.40;;
52494;SDS011;38405;53.212;5.660;2022-07-12T07:56:10;3.60;;;3.30;;
52494;SDS011;38405;53.212;5.660;2022-07-12T07:58:37;3.70;;;3.40;;
52494;SDS011;38405;53.212;5.660;2022-07-12T08:01:03;3.97;;;3.58;;
52494;SDS011;38405;53.212;5.660;2022-07-12T08:03:29;3.60;;;3.30;;
52494;SDS011;38405;53.212;5.660;2022-07-12T08:05:54;3.22;;;2.92;;
52494;SDS011;38405;53.212;5.660;2022-07-12T08:08:22;3.30;;;3.10;;
52494;SDS011;38405;53.212;5.660;2022-07-12T08:10:51;3.67;;;3.38;;
52494;SDS011;38405;53.212;5.660;2022-07-12T08:13:17;2.95;;;2.75;;
52494;SDS011;38405;53.212;5.660;2022-07-12T08:15:43;2.95;;;2.67;;
52494;SDS011;38405;53.212;5.660;2022-07-12T08:18:08;3.03;;;2.72;;
52494;SDS011;38405;53.212;5.660;2022-07-12T08:20:34;3.08;;;2.88;;
52494;SDS011;38405;53.212;5.660;2022-07-12T08:23:01;5.53;;;2.72;;
52494;SDS011;38405;53.212;5.660;2022-07-12T08:25:27;3.00;;;2.80;;
52494;SDS011;38405;53.212;5.660;2022-07-12T08:27:53;3.00;;;2.80;;
52494;SDS011;38405;53.212;5.660;2022-07-12T08:30:19;2.80;;;2.60;;
52494;SDS011;38405;53.212;5.660;2022-07-12T08:32:45;3.13;;;2.60;;
52494;SDS011;38405;53.212;5.660;2022-07-12T08:35:11;5.07;;;2.70;;
52494;SDS011;38405;53.212;5.660;2022-07-12T08:37:37;2.72;;;2.53;;
52494;SDS011;38405;53.212;5.660;2022-07-12T08:40:03;2.65;;;2.40;;
52494;SDS011;38405;53.212;5.660;2022-07-12T08:42:30;5.75;;;2.67;;
52494;SDS011;38405;53.212;5.660;2022-07-12T08:44:57;2.25;;;2.15;;
52494;SDS011;38405;53.212;5.660;2022-07-12T08:47:23;4.78;;;2.95;;
52494;SDS011;38405;53.212;5.660;2022-07-12T08:52:40;2.55;;;2.35;;
52494;SDS011;38405;53.212;5.660;2022-07-12T08:57:44;2.90;;;2.63;;
52494;SDS011;38405;53.212;5.660;2022-07-12T09:00:10;5.10;;;3.60;;
52494;SDS011;38405;53.212;5.660;2022-07-12T09:05:26;3.33;;;2.87;;
52494;SDS011;38405;53.212;5.660;2022-07-12T09:08:06;3.00;;;2.80;;
52494;SDS011;38405;53.212;5.660;2022-07-12T09:10:35;3.05;;;2.85;;
52494;SDS011;38405;53.212;5.660;2022-07-12T09:13:44;3.50;;;3.10;;
52494;SDS011;38405;53.212;5.660;2022-07-12T09:16:23;4.68;;;3.38;;
52494;SDS011;38405;53.212;5.660;2022-07-12T09:18:51;3.70;;;3.40;;
52494;SDS011;38405;53.212;5.660;2022-07-12T09:21:35;4.05;;;3.75;;
52494;SDS011;38405;53.212;5.660;2022-07-12T09:24:10;3.45;;;3.15;;
52494;SDS011;38405;53.212;5.660;2022-07-12T09:26:37;3.20;;;2.90;;
52494;SDS011;38405;53.212;5.660;2022-07-12T09:29:06;4.07;;;3.50;;
52494;SDS011;38405;53.212;5.660;2022-07-12T09:31:42;5.35;;;4.05;;
52494;SDS011;38405;53.212;5.660;2022-07-12T09:34:30;4.13;;;3.70;;
52494;SDS011;38405;53.212;5.660;2022-07-12T09:37:14;4.47;;;4.05;;
52494;SDS011;38405;53.212;5.660;2022-07-12T09:39:41;4.18;;;3.78;;
52494;SDS011;38405;53.212;5.660;2022-07-12T09:42:11;8.55;;;3.30;;
52494;SDS011;38405;53.212;5.660;2022-07-12T09:44:37;4.43;;;4.03;;
52494;SDS011;38405;53.212;5.660;2022-07-12T09:47:06;3.95;;;3.55;;
52494;SDS011;38405;53.212;5.660;2022-07-12T09:49:43;7.43;;;4.30;;
52494;SDS011;38405;53.212;5.660;2022-07-12T09:52:14;4.43;;;4.03;;
52494;SDS011;38405;53.212;5.660;2022-07-12T09:54:47;4.10;;;3.70;;
52494;SDS011;38405;53.212;5.660;2022-07-12T10:00:00;3.72;;;3.40;;
52494;SDS011;38405;53.212;5.660;2022-07-12T10:02:28;4.28;;;3.88;;
52494;SDS011;38405;53.212;5.660;2022-07-12T10:04:55;3.92;;;3.63;;
52494;SDS011;38405;53.212;5.660;2022-07-12T10:07:23;4.28;;;3.40;;
52494;SDS011;38405;53.212;5.660;2022-07-12T10:09:50;4.18;;;3.63;;
52494;SDS011;38405;53.212;5.660;2022-07-12T10:12:18;3.85;;;3.38;;
52494;SDS011;38405;53.212;5.660;2022-07-12T10:14:45;3.67;;;3.38;;
52494;SDS011;38405;53.212;5.660;2022-07-12T10:17:13;6.05;;;4.35;;
52494;SDS011;38405;53.212;5.660;2022-07-12T10:19:47;4.70;;;4.20;;
52494;SDS011;38405;53.212;5.660;2022-07-12T10:22:19;4.57;;;3.90;;
52494;SDS011;38405;53.212;5.660;2022-07-12T10:24:46;6.25;;;4.35;;
52494;SDS011;38405;53.212;5.660;2022-07-12T10:29:49;4.60;;;4.20;;
52494;SDS011;38405;53.212;5.660;2022-07-12T10:32:23;5.32;;;4.80;;
52494;SDS011;38405;53.212;5.660;2022-07-12T10:34:58;5.65;;;4.25;;
52494;SDS011;38405;53.212;5.660;2022-07-12T10:37:26;4.85;;;4.45;;
52494;SDS011;38405;53.212;5.660;2022-07-12T10:45:29;5.85;;;4.45;;
52494;SDS011;38405;53.212;5.660;2022-07-12T10:47:58;4.93;;;4.43;;
52494;SDS011;38405;53.212;5.660;2022-07-12T10:58:30;5.80;;;5.10;;
52494;SDS011;38405;53.212;5.660;2022-07-12T11:00:56;5.20;;;4.70;;
52494;SDS011;38405;53.212;5.660;2022-07-12T11:03:37;4.97;;;4.40;;
52494;SDS011;38405;53.212;5.660;2022-07-12T11:06:04;5.68;;;4.30;;
52494;SDS011;38405;53.212;5.660;2022-07-12T11:08:30;6.38;;;4.60;;
52494;SDS011;38405;53.212;5.660;2022-07-12T11:11:12;5.25;;;4.25;;
52494;SDS011;38405;53.212;5.660;2022-07-12T11:13:38;4.45;;;4.00;;
52494;SDS011;38405;53.212;5.660;2022-07-12T11:16:03;7.80;;;4.68;;
52494;SDS011;38405;53.212;5.660;2022-07-12T11:18:30;5.03;;;4.30;;
52494;SDS011;38405;53.212;5.660;2022-07-12T11:20:59;5.18;;;4.68;;
52494;SDS011;38405;53.212;5.660;2022-07-12T11:23:26;4.55;;;4.15;;
52494;SDS011;38405;53.212;5.660;2022-07-12T11:25:56;4.50;;;3.50;;
52494;SDS011;38405;53.212;5.660;2022-07-12T11:28:26;5.32;;;3.63;;
52494;SDS011;38405;53.212;5.660;2022-07-12T11:31:01;4.25;;;3.70;;
52494;SDS011;38405;53.212;5.660;2022-07-12T11:33:41;6.45;;;3.60;;
52494;SDS011;38405;53.212;5.660;2022-07-12T11:36:10;7.30;;;3.17;;
52494;SDS011;38405;53.212;5.660;2022-07-12T11:38:37;5.85;;;3.88;;
52494;SDS011;38405;53.212;5.660;2022-07-12T11:41:04;5.07;;;3.50;;
52494;SDS011;38405;53.212;5.660;2022-07-12T11:43:31;3.55;;;2.90;;
52494;SDS011;38405;53.212;5.660;2022-07-12T11:45:58;3.42;;;2.95;;
52494;SDS011;38405;53.212;5.660;2022-07-12T11:48:25;4.55;;;3.45;;
52494;SDS011;38405;53.212;5.660;2022-07-12T11:50:54;5.13;;;3.90;;
52494;SDS011;38405;53.212;5.660;2022-07-12T11:53:24;4.88;;;4.18;;
52494;SDS011;38405;53.212;5.660;2022-07-12T11:55:51;5.72;;;3.00;;
52494;SDS011;38405;53.212;5.660;2022-07-12T11:58:22;3.97;;;3.50;;
52494;SDS011;38405;53.212;5.660;2022-07-12T12:00:49;7.53;;;4.25;;
52494;SDS011;38405;53.212;5.660;2022-07-12T12:03:16;7.25;;;5.05;;
52494;SDS011;38405;53.212;5.660;2022-07-12T12:05:46;7.35;;;5.40;;
52494;SDS011;38405;53.212;5.660;2022-07-12T12:08:13;7.60;;;5.25;;
52494;SDS011;38405;53.212;5.660;2022-07-12T12:10:40;6.82;;;6.00;;
52494;SDS011;38405;53.212;5.660;2022-07-12T12:13:14;7.32;;;6.00;;
52494;SDS011;38405;53.212;5.660;2022-07-12T12:15:41;8.07;;;5.80;;
52494;SDS011;38405;53.212;5.660;2022-07-12T12:18:13;13.68;;;6.65;;
52494;SDS011;38405;53.212;5.660;2022-07-12T12:20:40;11.38;;;7.68;;
52494;SDS011;38405;53.212;5.660;2022-07-12T12:23:16;8.57;;;7.25;;
52494;SDS011;38405;53.212;5.660;2022-07-12T12:25:43;8.70;;;6.60;;
52494;SDS011;38405;53.212;5.660;2022-07-12T12:28:10;13.07;;;7.32;;
52494;SDS011;38405;53.212;5.660;2022-07-12T12:30:52;10.73;;;6.65;;
52494;SDS011;38405;53.212;5.660;2022-07-12T12:33:34;11.25;;;8.07;;
52494;SDS011;38405;53.212;5.660;2022-07-12T12:36:18;8.30;;;7.43;;
52494;SDS011;38405;53.212;5.660;2022-07-12T12:38:54;8.45;;;7.38;;
52494;SDS011;38405;53.212;5.660;2022-07-12T12:41:22;15.48;;;8.00;;
52494;SDS011;38405;53.212;5.660;2022-07-12T12:46:53;10.98;;;8.27;;
52494;SDS011;38405;53.212;5.660;2022-07-12T12:49:49;17.80;;;7.32;;
52494;SDS011;38405;53.212;5.660;2022-07-12T12:52:16;9.60;;;8.60;;
52494;SDS011;38405;53.212;5.660;2022-07-12T12:54:43;11.48;;;8.45;;
52494;SDS011;38405;53.212;5.660;2022-07-12T12:57:10;8.85;;;7.40;;
52494;SDS011;38405;53.212;5.660;2022-07-12T12:59:36;10.15;;;7.78;;
52494;SDS011;38405;53.212;5.660;2022-07-12T13:02:03;9.52;;;7.60;;
52494;SDS011;38405;53.212;5.660;2022-07-12T13:04:34;11.15;;;8.40;;
52494;SDS011;38405;53.212;5.660;2022-07-12T13:07:01;11.70;;;8.35;;
52494;SDS011;38405;53.212;5.660;2022-07-12T13:09:28;13.35;;;8.10;;
52494;SDS011;38405;53.212;5.660;2022-07-12T13:11:57;12.35;;;8.52;;
52494;SDS011;38405;53.212;5.660;2022-07-12T13:14:27;9.43;;;8.43;;
52494;SDS011;38405;53.212;5.660;2022-07-12T13:16:53;9.60;;;7.82;;
52494;SDS011;38405;53.212;5.660;2022-07-12T13:19:19;9.85;;;7.25;;
52494;SDS011;38405;53.212;5.660;2022-07-12T13:21:46;6.63;;;6.00;;
52494;SDS011;38405;53.212;5.660;2022-07-12T13:24:11;8.43;;;6.95;;
52494;SDS011;38405;53.212;5.660;2022-07-12T13:26:37;9.25;;;7.13;;
52494;SDS011;38405;53.212;5.660;2022-07-12T13:29:27;8.15;;;6.32;;
52494;SDS011;38405;53.212;5.660;2022-07-12T13:32:01;9.98;;;5.57;;
52494;SDS011;38405;53.212;5.660;2022-07-12T13:34:27;7.63;;;6.10;;
52494;SDS011;38405;53.212;5.660;2022-07-12T13:36:53;8.68;;;5.13;;
52494;SDS011;38405;53.212;5.660;2022-07-12T13:39:18;7.45;;;5.95;;
52494;SDS011;38405;53.212;5.660;2022-07-12T13:42:02;7.47;;;5.90;;
52494;SDS011;38405;53.212;5.660;2022-07-12T13:44:28;9.85;;;6.32;;
52494;SDS011;38405;53.212;5.660;2022-07-12T13:46:54;7.47;;;5.97;;
52494;SDS011;38405;53.212;5.660;2022-07-12T13:49:20;7.00;;;6.30;;
52494;SDS011;38405;53.212;5.660;2022-07-12T13:51:46;8.45;;;5.90;;
52494;SDS011;38405;53.212;5.660;2022-07-12T13:54:13;6.95;;;5.10;;
52494;SDS011;38405;53.212;5.660;2022-07-12T13:56:38;6.15;;;4.90;;
52494;SDS011;38405;53.212;5.660;2022-07-12T13:59:05;6.82;;;5.55;;
52494;SDS011;38405;53.212;5.660;2022-07-12T14:01:31;5.45;;;4.85;;
52494;SDS011;38405;53.212;5.660;2022-07-12T14:03:57;5.40;;;4.85;;
52494;SDS011;38405;53.212;5.660;2022-07-12T14:06:22;5.25;;;4.18;;
52494;SDS011;38405;53.212;5.660;2022-07-12T14:08:49;7.97;;;4.97;;
52494;SDS011;38405;53.212;5.660;2022-07-12T14:11:16;7.13;;;5.50;;
52494;SDS011;38405;53.212;5.660;2022-07-12T14:13:41;6.05;;;4.95;;
52494;SDS011;38405;53.212;5.660;2022-07-12T14:16:08;7.13;;;5.30;;
52494;SDS011;38405;53.212;5.660;2022-07-12T14:18:34;6.35;;;5.13;;
52494;SDS011;38405;53.212;5.660;2022-07-12T14:21:00;10.15;;;5.55;;
52494;SDS011;38405;53.212;5.660;2022-07-12T14:23:25;7.43;;;5.28;;
52494;SDS011;38405;53.212;5.660;2022-07-12T14:25:51;6.40;;;5.35;;
52494;SDS011;38405;53.212;5.660;2022-07-12T14:28:17;9.90;;;5.82;;
52494;SDS011;38405;53.212;5.660;2022-07-12T14:30:44;6.53;;;5.35;;
52494;SDS011;38405;53.212;5.660;2022-07-12T14:33:11;6.72;;;5.50;;
52494;SDS011;38405;53.212;5.660;2022-07-12T14:35:40;9.45;;;5.93;;
52494;SDS011;38405;53.212;5.660;2022-07-12T14:38:05;7.70;;;5.78;;
52494;SDS011;38405;53.212;5.660;2022-07-12T14:40:31;8.82;;;5.65;;
52494;SDS011;38405;53.212;5.660;2022-07-12T14:42:57;8.88;;;5.47;;
52494;SDS011;38405;53.212;5.660;2022-07-12T14:45:23;8.25;;;5.43;;
52494;SDS011;38405;53.212;5.660;2022-07-12T14:47:49;8.68;;;5.95;;
52494;SDS011;38405;53.212;5.660;2022-07-12T14:50:17;6.07;;;5.47;;
52494;SDS011;38405;53.212;5.660;2022-07-12T14:52:43;7.72;;;5.00;;
52494;SDS011;38405;53.212;5.660;2022-07-12T14:55:12;4.63;;;4.13;;
52494;SDS011;38405;53.212;5.660;2022-07-12T14:57:39;5.03;;;4.20;;
52494;SDS011;38405;53.212;5.660;2022-07-12T15:00:05;6.43;;;4.13;;
52494;SDS011;38405;53.212;5.660;2022-07-12T15:02:33;4.93;;;4.03;;
52494;SDS011;38405;53.212;5.660;2022-07-12T15:04:59;8.65;;;4.45;;
52494;SDS011;38405;53.212;5.660;2022-07-12T15:07:31;4.30;;;3.88;;
52494;SDS011;38405;53.212;5.660;2022-07-12T15:09:57;4.72;;;3.90;;
52494;SDS011;38405;53.212;5.660;2022-07-12T15:12:23;5.93;;;4.40;;